Time;durP1;ratioP1;P1;durP2;ratioP2;P2;SDS_P1;SDS_P2;PMS_P1;PMS_P2;Temp;Humidity;BMP_temperature;BMP_pressure;BME280_temperature;BME280_humidity;BME280_pressure;Samples;Min_cycle;Max_cycle;Signal;HPM_P1;HPM_P2
2021/03/24 00:01:57;;;;;;;4.17;2.50;;;;;;;3.81;55.80;101149.25;1735507;82;21297;-41
2021/03/24 00:04:25;;;;;;;4.00;2.22;;;;;;;3.80;56.01;101153.94;1742083;81;21148;-45
2021/03/24 00:06:53;;;;;;;4.25;2.60;;;;;;;3.76;55.69;101149.60;1735992;81;21584;-44
2021/03/24 00:09:21;;;;;;;2.52;2.10;;;;;;;3.70;55.98;101155.55;1740592;82;21293;-47
2021/03/24 00:11:51;;;;;;;4.92;2.55;;;;;;;3.69;56.11;101153.80;1742205;81;21672;-45
2021/03/24 00:14:20;;;;;;;3.70;2.60;;;;;;;3.69;56.39;101152.97;1732017;82;21193;-47
2021/03/24 00:16:48;;;;;;;5.28;2.45;;;;;;;3.67;56.09;101145.65;1744645;82;21176;-41
2021/03/24 00:19:17;;;;;;;4.12;2.35;;;;;;;3.71;56.30;101153.84;1732216;82;21160;-45
2021/03/24 00:21:46;;;;;;;3.35;2.37;;;;;;;3.72;56.54;101154.27;1744387;82;21156;-45
2021/03/24 00:24:16;;;;;;;2.67;2.20;;;;;;;3.72;56.48;101152.57;1739825;82;21152;-45
2021/03/24 00:26:43;;;;;;;3.17;2.10;;;;;;;3.64;56.67;101154.60;1738805;82;21180;-46
2021/03/24 00:29:11;;;;;;;2.98;1.95;;;;;;;3.63;56.93;101163.15;1739634;82;21160;-46
2021/03/24 00:31:40;;;;;;;3.72;2.10;;;;;;;3.62;56.92;101158.45;1737853;82;21132;-47
2021/03/24 00:34:08;;;;;;;3.02;2.15;;;;;;;3.63;56.51;101158.00;1741732;82;21158;-42
2021/03/24 00:36:36;;;;;;;4.30;2.00;;;;;;;3.61;56.40;101157.99;1733520;82;21310;-43
2021/03/24 00:39:04;;;;;;;2.95;2.20;;;;;;;3.56;56.69;101167.80;1744849;82;21625;-44
2021/03/24 00:41:32;;;;;;;3.40;2.22;;;;;;;3.56;56.70;101163.94;1732741;80;21595;-44
2021/03/24 00:44:00;;;;;;;2.77;2.20;;;;;;;3.56;56.84;101169.08;1739484;82;21152;-45
2021/03/24 00:46:28;;;;;;;4.37;2.58;;;;;;;3.54;56.38;101166.91;1739188;82;21168;-43
2021/03/24 00:48:56;;;;;;;3.72;2.50;;;;;;;3.55;56.33;101168.63;1739951;82;21561;-46
2021/03/24 00:51:25;;;;;;;4.28;2.72;;;;;;;3.52;56.44;101167.31;1743938;82;21516;-46
2021/03/24 00:53:53;;;;;;;3.70;2.58;;;;;;;3.50;56.62;101171.58;1744388;82;21569;-47
2021/03/24 00:56:22;;;;;;;3.58;2.83;;;;;;;3.48;56.62;101168.99;1732298;82;21151;-46
2021/03/24 00:59:18;;;;;;;4.55;2.50;;;;;;;3.48;57.02;101171.56;1725731;82;21132;-46
2021/03/24 01:02:05;;;;;;;3.80;2.17;;;;;;;3.49;56.68;101173.69;1741319;82;21161;-42
2021/03/24 01:04:34;;;;;;;3.67;2.37;;;;;;;3.48;56.47;101170.69;1733326;82;21149;-46
2021/03/24 01:07:06;;;;;;;3.83;2.70;;;;;;;3.47;56.75;101172.80;1744772;82;21121;-44
2021/03/24 01:09:36;;;;;;;3.15;2.80;;;;;;;3.43;56.59;101162.03;1732287;82;21168;-46
2021/03/24 01:12:06;;;;;;;5.95;2.70;;;;;;;3.37;56.41;101161.95;1742419;82;21148;-46
2021/03/24 01:14:33;;;;;;;4.47;2.65;;;;;;;3.35;56.79;101167.50;1736597;82;21735;-46
2021/03/24 01:17:05;;;;;;;6.17;2.77;;;;;;;3.32;56.79;101162.33;1738004;82;21176;-46
2021/03/24 01:19:32;;;;;;;4.47;2.25;;;;;;;3.30;56.76;101169.58;1733128;82;21585;-45
2021/03/24 01:22:02;;;;;;;3.42;2.67;;;;;;;3.30;57.07;101169.58;1732190;82;21125;-42
2021/03/24 01:24:30;;;;;;;3.27;2.50;;;;;;;3.30;57.30;101172.16;1742939;81;21132;-46
2021/03/24 01:26:59;;;;;;;5.22;2.42;;;;;;;3.30;57.47;101177.30;1736055;82;21286;-44
2021/03/24 01:29:27;;;;;;;3.77;2.30;;;;;;;3.27;57.20;101170.84;1738542;82;21196;-51
2021/03/24 01:31:55;;;;;;;3.52;2.40;;;;;;;3.23;56.88;101179.77;1735913;82;21132;-47
2021/03/24 01:34:24;;;;;;;5.53;2.72;;;;;;;3.19;57.17;101177.55;1737613;82;21108;-42
2021/03/24 01:36:51;;;;;;;2.85;2.30;;;;;;;3.17;57.41;101171.52;1741325;82;21120;-48
2021/03/24 01:39:19;;;;;;;2.67;2.40;;;;;;;3.16;57.17;101171.09;1738089;82;21465;-46
2021/03/24 01:41:47;;;;;;;4.90;2.30;;;;;;;3.15;57.14;101169.36;1738824;82;21185;-43
2021/03/24 01:44:15;;;;;;;3.85;2.30;;;;;;;3.13;57.07;101173.61;1739348;82;21148;-46
2021/03/24 01:46:46;;;;;;;3.47;2.95;;;;;;;3.15;57.38;101177.06;1744719;82;21185;-43
2021/03/24 01:49:28;;;;;;;2.62;2.30;;;;;;;3.16;57.15;101173.67;1734767;82;21160;-42
2021/03/24 01:52:06;;;;;;;3.87;2.55;;;;;;;3.16;57.15;101173.67;1743105;82;21145;-46
2021/03/24 01:54:38;;;;;;;3.10;2.08;;;;;;;3.15;57.29;101174.49;1726584;82;21170;-47
2021/03/24 01:57:11;;;;;;;3.70;2.65;;;;;;;3.12;57.37;101174.47;1682039;84;21222;-43
2021/03/24 01:59:45;;;;;;;3.60;1.98;;;;;;;3.16;57.32;101187.81;1810129;79;22996;-46
2021/03/24 02:02:16;;;;;;;3.52;2.37;;;;;;;3.11;57.13;101186.86;1783873;80;21601;-46
2021/03/24 02:04:44;;;;;;;2.85;2.30;;;;;;;3.09;57.24;101192.41;1776553;80;21139;-48
2021/03/24 02:07:25;;;;;;;3.12;2.45;;;;;;;3.16;56.89;101185.24;1768676;80;21396;-46
2021/03/24 02:09:59;;;;;;;3.80;2.58;;;;;;;3.15;56.72;101180.92;1766282;80;21144;-41
2021/03/24 02:12:47;;;;;;;3.80;2.42;;;;;;;3.18;56.73;101182.69;1772479;79;23297;-42
2021/03/24 02:15:20;;;;;;;6.80;2.47;;;;;;;3.12;57.20;101187.32;1734729;82;21160;-46
2021/03/24 02:17:48;;;;;;;2.52;2.22;;;;;;;3.14;57.35;101188.21;1698326;84;21203;-41
2021/03/24 02:20:36;;;;;;;3.70;2.47;;;;;;;3.16;57.57;101183.08;1690463;84;21152;-46
2021/03/24 02:23:24;;;;;;;3.47;2.52;;;;;;;3.12;57.75;101178.33;1697130;84;21179;-44
2021/03/24 02:26:04;;;;;;;4.17;2.40;;;;;;;3.07;58.12;101178.66;1698816;84;21715;-45
2021/03/24 02:28:32;;;;;;;2.72;2.05;;;;;;;3.07;57.72;101181.23;1695653;84;21247;-41
2021/03/24 02:31:00;;;;;;;2.87;2.17;;;;;;;3.07;57.84;101177.82;1690633;84;21310;-45
2021/03/24 02:33:35;;;;;;;3.70;2.60;;;;;;;3.09;58.06;101176.98;1689864;84;21326;-46
2021/03/24 02:36:06;;;;;;;3.77;2.77;;;;;;;3.07;58.16;101191.52;1691552;84;21215;-42
2021/03/24 02:38:37;;;;;;;3.10;2.20;;;;;;;3.04;58.13;101192.77;1688934;84;21180;-46
2021/03/24 02:41:04;;;;;;;3.80;2.02;;;;;;;3.03;58.24;101183.31;1694756;84;21163;-45
2021/03/24 02:43:34;;;;;;;3.47;2.42;;;;;;;3.04;58.43;101179.05;1681089;84;21171;-43
2021/03/24 02:46:04;;;;;;;3.83;2.37;;;;;;;3.08;58.34;101176.55;1693781;84;21632;-41
2021/03/24 02:48:34;;;;;;;3.22;1.95;;;;;;;3.08;58.85;101171.41;1692573;84;21288;-46
2021/03/24 02:51:05;;;;;;;3.87;2.65;;;;;;;3.11;59.09;101179.15;1690547;84;21243;-41
2021/03/24 02:53:32;;;;;;;3.35;2.65;;;;;;;3.13;58.71;101172.77;1669871;84;21612;-46
2021/03/24 02:56:04;;;;;;;3.37;2.37;;;;;;;3.09;58.83;101178.27;1669629;85;21187;-45
2021/03/24 02:58:32;;;;;;;2.97;2.53;;;;;;;3.03;58.74;101174.31;1666010;84;21612;-41
2021/03/24 03:01:05;;;;;;;6.08;2.70;;;;;;;2.98;58.89;101183.69;1695363;84;21625;-45
2021/03/24 03:03:39;;;;;;;2.70;2.30;;;;;;;2.96;58.98;101187.94;1693666;84;21241;-41
2021/03/24 03:06:10;;;;;;;5.05;2.90;;;;;;;2.92;59.28;101181.02;1692211;84;21156;-46
2021/03/24 03:08:51;;;;;;;3.25;2.30;;;;;;;2.90;59.23;101177.56;1690037;84;21172;-45
2021/03/24 03:11:36;;;;;;;2.85;2.40;;;;;;;2.98;59.53;101177.67;1810127;79;22195;-48
2021/03/24 03:14:25;;;;;;;4.25;3.47;;;;;;;2.93;59.84;101177.59;1777935;80;21559;-45
2021/03/24 03:16:57;;;;;;;3.60;3.02;;;;;;;2.93;59.80;101176.30;1770715;80;21155;-45
2021/03/24 03:19:31;;;;;;;3.47;2.85;;;;;;;2.94;60.23;101166.48;1725810;83;21120;-46
2021/03/24 03:22:13;;;;;;;3.58;2.90;;;;;;;2.91;59.94;101175.83;1725744;83;21124;-41
2021/03/24 03:24:46;;;;;;;5.28;2.80;;;;;;;2.88;59.97;101166.39;1719779;83;21168;-45
2021/03/24 03:27:16;;;;;;;3.50;2.83;;;;;;;2.85;59.89;101172.75;1725756;83;21187;-47
2021/03/24 03:29:44;;;;;;;4.22;2.87;;;;;;;2.83;59.79;101179.57;1725824;83;21633;-46
2021/03/24 03:32:15;;;;;;;3.45;2.70;;;;;;;2.82;60.16;101184.70;1725708;83;21715;-49
2021/03/24 03:34:46;;;;;;;3.85;2.42;;;;;;;2.80;60.38;101178.25;1709096;83;21233;-41
2021/03/24 03:37:13;;;;;;;3.50;2.60;;;;;;;2.79;60.10;101176.51;1725800;83;21334;-41
2021/03/24 03:39:42;;;;;;;4.05;2.47;;;;;;;2.83;59.96;101178.70;1725834;83;21318;-43
2021/03/24 03:42:11;;;;;;;3.15;2.30;;;;;;;2.82;60.02;101179.14;1709969;83;21168;-45
2021/03/24 03:44:40;;;;;;;4.08;2.80;;;;;;;2.85;59.91;101171.47;1722233;83;21157;-45
2021/03/24 03:47:11;;;;;;;2.75;2.50;;;;;;;2.84;60.26;101177.46;1725772;83;21172;-42
2021/03/24 03:49:39;;;;;;;5.90;2.50;;;;;;;2.88;59.93;101179.23;1702314;83;21216;-43
2021/03/24 03:52:32;;;;;;;3.50;2.72;;;;;;;2.87;59.94;101177.49;1717500;83;21187;-42
2021/03/24 03:55:33;;;;;;;3.30;2.52;;;;;;;2.89;60.21;101175.81;1723395;83;21310;-46
2021/03/24 03:58:31;;;;;;;3.00;2.70;;;;;;;2.95;60.12;101160.48;1790224;79;28544;-49
2021/03/24 04:01:12;;;;;;;;;;;;;;;3.00;59.98;101165.70;1784533;80;21130;-45
2021/03/24 04:03:46;;;;;;;4.80;2.33;;;;;;;3.08;59.67;101170.13;1712262;82;20134;-45
2021/03/24 04:06:19;;;;;;;3.50;2.98;;;;;;;3.09;59.60;101175.69;1710785;83;21551;-45
2021/03/24 04:08:46;;;;;;;;;;;;;;;3.09;59.33;101171.00;1681511;85;21268;-46
2021/03/24 04:11:16;;;;;;;3.42;2.20;;;;;;;3.07;59.36;101167.09;1664763;85;20216;-48
2021/03/24 04:13:50;;;;;;;2.83;2.30;;;;;;;3.08;59.47;101179.13;1671147;85;21183;-46
2021/03/24 04:16:25;;;;;;;4.22;2.67;;;;;;;3.14;59.58;101174.07;1808488;79;22819;-43
2021/03/24 04:19:02;;;;;;;2.95;2.65;;;;;;;3.10;59.19;101182.58;1780374;80;21521;-46
2021/03/24 04:21:32;;;;;;;3.20;2.70;;;;;;;3.12;59.67;101177.45;1770374;80;21184;-47
2021/03/24 04:24:08;;;;;;;2.70;2.50;;;;;;;3.14;59.71;101188.21;1772064;80;21152;-45
2021/03/24 04:26:48;;;;;;;4.15;2.90;;;;;;;3.13;59.78;101185.63;1771256;80;21256;-45
2021/03/24 04:29:32;;;;;;;4.22;3.08;;;;;;;3.18;60.12;101179.70;1771612;79;22952;-46
2021/03/24 04:32:01;;;;;;;3.47;2.50;;;;;;;3.21;60.20;101184.03;1733014;81;21121;-45
2021/03/24 04:34:29;;;;;;;3.40;2.72;;;;;;;3.27;59.74;101193.99;1733895;81;21167;-42
2021/03/24 04:37:32;;;;;;;3.42;2.65;;;;;;;3.28;59.59;101194.83;1730177;82;21145;-45
2021/03/24 04:40:05;;;;;;;3.62;2.75;;;;;;;3.30;59.59;101195.30;1704166;82;21608;-44
2021/03/24 04:42:44;;;;;;;3.37;2.58;;;;;;;3.28;59.17;101191.84;1697976;83;21181;-43
2021/03/24 04:45:26;;;;;;;3.50;2.70;;;;;;;3.28;58.93;101201.26;1705104;83;21172;-45
2021/03/24 04:47:54;;;;;;;;;;;;;;;3.29;58.39;101196.16;1698222;83;21617;-41
2021/03/24 04:50:32;;;;;;;4.65;2.80;;;;;;;3.27;58.41;101202.99;1700531;83;20175;-45
2021/03/24 04:53:06;;;;;;;3.33;2.30;;;;;;;3.34;58.38;101203.08;1771267;79;22709;-46
2021/03/24 04:55:35;;;;;;;3.37;2.52;;;;;;;3.27;58.08;101209.42;1739401;82;21160;-46
2021/03/24 04:58:04;;;;;;;3.80;2.50;;;;;;;3.27;58.12;101209.84;1737083;82;21176;-43
2021/03/24 05:00:50;;;;;;;3.30;2.67;;;;;;;3.27;58.00;101205.56;1741100;82;21137;-47
2021/03/24 05:03:24;;;;;;;3.52;2.60;;;;;;;3.28;57.83;101204.70;1737030;82;21149;-45
2021/03/24 05:05:54;;;;;;;4.08;2.90;;;;;;;3.29;58.00;101218.02;1736183;82;21160;-45
2021/03/24 05:08:32;;;;;;;2.60;2.05;;;;;;;3.26;57.87;101228.25;1744949;82;21160;-43
2021/03/24 05:11:06;;;;;;;2.77;2.50;;;;;;;3.25;58.01;101227.83;1737705;82;21164;-43
2021/03/24 05:13:42;;;;;;;2.83;2.55;;;;;;;3.26;58.14;101228.25;1734420;82;21674;-46
2021/03/24 05:16:25;;;;;;;3.92;2.95;;;;;;;3.26;58.12;101221.82;1738949;81;21818;-46
2021/03/24 05:18:55;;;;;;;3.40;2.70;;;;;;;3.27;58.13;101227.42;1747306;82;21161;-45
2021/03/24 05:21:53;;;;;;;3.42;2.15;;;;;;;3.29;58.15;101214.58;1738866;82;21184;-44
2021/03/24 05:24:27;;;;;;;3.08;2.42;;;;;;;3.34;58.01;101226.23;1637679;87;21622;-41
2021/03/24 05:27:11;;;;;;;3.00;2.40;;;;;;;3.35;57.65;101227.94;1631455;87;21622;-47
2021/03/24 05:29:49;;;;;;;4.80;2.35;;;;;;;3.42;57.37;101228.48;1804504;79;22737;-47
2021/03/24 05:32:22;;;;;;;3.10;2.45;;;;;;;3.40;56.72;101226.31;1778445;80;21592;-46
2021/03/24 05:34:53;;;;;;;2.77;2.47;;;;;;;3.45;57.27;101232.38;1683165;85;21165;-45
2021/03/24 05:37:30;;;;;;;2.98;2.67;;;;;;;3.49;57.12;101235.02;1685347;85;21606;-44
2021/03/24 05:40:13;;;;;;;4.40;3.37;;;;;;;3.52;57.50;101240.64;1685263;85;21177;-45
2021/03/24 05:42:56;;;;;;;4.00;2.85;;;;;;;3.53;57.96;101247.50;1682151;85;21192;-45
2021/03/24 05:46:18;;;;;;;3.83;2.92;;;;;;;3.60;57.80;101240.33;1771569;79;22943;-45
2021/03/24 05:48:54;;;;;;;5.05;3.52;;;;;;;3.56;57.65;101247.56;1739271;82;21144;-45
2021/03/24 05:52:06;;;;;;;4.78;3.15;;;;;;;3.55;57.91;101247.09;1727982;82;21152;-46
2021/03/24 05:55:03;;;;;;;4.85;3.60;;;;;;;3.59;58.39;101248.88;1738354;82;21185;-46
2021/03/24 05:57:54;;;;;;;4.00;2.70;;;;;;;3.65;58.33;101251.53;1736704;82;21133;-41
2021/03/24 06:00:51;;;;;;;3.77;3.05;;;;;;;3.71;58.13;101251.64;1739404;82;21160;-41
2021/03/24 06:03:44;;;;;;;5.72;3.58;;;;;;;3.86;57.76;101254.41;1736169;82;21151;-43
2021/03/24 06:06:24;;;;;;;4.83;3.52;;;;;;;4.04;57.46;101241.76;1643421;86;21206;-41
2021/03/24 06:09:23;;;;;;;5.05;3.20;;;;;;;4.24;56.53;101242.88;1660150;86;21182;-49
2021/03/24 06:12:26;;;;;;;4.62;3.30;;;;;;;4.51;56.30;101240.62;1646761;86;21190;-42
2021/03/24 06:15:21;;;;;;;5.25;3.42;;;;;;;4.88;55.40;101237.52;1651334;86;21647;-43
2021/03/24 06:18:00;;;;;;;4.62;3.10;;;;;;;5.24;54.10;101238.67;1656402;86;21187;-46
2021/03/24 06:20:54;;;;;;;4.30;3.10;;;;;;;5.47;52.98;101242.29;1656595;86;21200;-46
2021/03/24 06:23:39;;;;;;;4.47;2.90;;;;;;;5.55;51.90;101243.20;1655457;85;21635;-46
2021/03/24 06:26:27;;;;;;;5.60;3.10;;;;;;;5.52;51.94;101245.78;1812537;79;22769;-42
2021/03/24 06:29:33;;;;;;;4.62;2.77;;;;;;;5.37;52.60;101245.66;1777022;80;21145;-46
2021/03/24 06:32:28;;;;;;;4.22;3.00;;;;;;;5.45;52.76;101247.87;1777594;80;21133;-46
2021/03/24 06:35:17;;;;;;;5.28;3.02;;;;;;;5.67;51.91;101257.05;1786042;80;21117;-45
2021/03/24 06:38:11;;;;;;;4.72;3.33;;;;;;;5.77;52.05;101257.95;1781273;80;21283;-46
2021/03/24 06:41:32;;;;;;;4.95;3.25;;;;;;;5.84;51.45;101255.89;1754669;81;21157;-46
2021/03/24 06:44:20;;;;;;;4.83;3.35;;;;;;;5.89;51.55;101258.50;1713930;83;21160;-45
2021/03/24 06:47:06;;;;;;;5.92;4.03;;;;;;;5.99;50.96;101263.73;1753577;81;21169;-43
2021/03/24 06:49:51;;;;;;;6.37;4.17;;;;;;;6.02;50.88;101270.19;1728288;83;21168;-44
2021/03/24 06:52:50;;;;;;;6.28;4.37;;;;;;;5.95;50.80;101275.32;1659738;86;21200;-45
2021/03/24 06:55:56;;;;;;;6.70;4.25;;;;;;;5.87;51.35;101272.71;1723014;83;21147;-45
2021/03/24 06:59:06;;;;;;;6.03;4.33;;;;;;;5.84;51.34;101273.97;1720637;83;21200;-42
2021/03/24 07:02:17;;;;;;;7.30;4.05;;;;;;;5.83;51.28;101279.09;1720205;83;21145;-46
2021/03/24 07:05:26;;;;;;;5.05;3.80;;;;;;;5.81;50.88;101284.27;1722516;83;21171;-45
2021/03/24 07:08:29;;;;;;;5.92;4.05;;;;;;;5.81;50.66;101277.81;1718671;83;21160;-43
2021/03/24 07:11:37;;;;;;;5.17;3.75;;;;;;;5.87;51.12;101284.75;1721937;82;21204;-41
2021/03/24 07:14:23;;;;;;;5.62;3.87;;;;;;;5.99;50.99;101279.23;1714352;83;21175;-47
2021/03/24 07:17:37;;;;;;;5.47;4.12;;;;;;;6.12;50.98;101284.87;1722220;83;21605;-45
2021/03/24 07:20:38;;;;;;;6.35;3.80;;;;;;;6.21;51.11;101279.75;1718945;83;21196;-47
2021/03/24 07:23:45;;;;;;;6.22;4.67;;;;;;;6.29;50.82;101290.98;1712381;83;21341;-46
2021/03/24 07:26:46;;;;;;;6.78;5.20;;;;;;;6.24;50.52;101283.66;1684828;83;21269;-42
2021/03/24 07:29:42;;;;;;;6.80;5.30;;;;;;;6.16;50.44;101285.31;1709888;82;21132;-46
2021/03/24 07:32:40;;;;;;;5.87;4.85;;;;;;;6.16;50.57;101288.35;1742365;82;21175;-45
2021/03/24 07:35:36;;;;;;;6.55;4.28;;;;;;;6.18;50.04;101284.89;1736487;82;21172;-46
2021/03/24 07:38:15;;;;;;;5.65;4.00;;;;;;;6.17;49.60;101287.06;1734752;82;21594;-46
2021/03/24 07:41:23;;;;;;;5.95;4.45;;;;;;;6.15;49.79;101288.77;1665218;84;21209;-42
2021/03/24 07:44:03;;;;;;;5.45;3.62;;;;;;;6.13;49.94;101286.61;1671285;85;21201;-45
2021/03/24 07:46:58;;;;;;;4.45;3.45;;;;;;;6.11;50.12;101287.03;1697839;83;21171;-45
2021/03/24 07:49:51;;;;;;;3.75;3.17;;;;;;;6.11;49.76;101293.49;1679471;85;21181;-45
2021/03/24 07:53:01;;;;;;;3.65;3.00;;;;;;;6.08;49.49;101296.05;1692608;84;21138;-42
2021/03/24 07:55:48;;;;;;;3.00;2.70;;;;;;;6.05;49.60;101297.34;1579465;89;21188;-45
2021/03/24 07:58:35;;;;;;;2.83;2.40;;;;;;;6.02;49.56;101297.77;1606801;89;21342;-45
2021/03/24 08:01:26;;;;;;;3.37;2.37;;;;;;;6.07;49.64;101304.67;1771513;79;22893;-42
2021/03/24 08:04:21;;;;;;;5.62;2.52;;;;;;;6.08;49.89;101306.38;1740560;82;21188;-44
2021/03/24 08:07:18;;;;;;;3.58;2.60;;;;;;;6.15;49.90;101301.69;1679000;84;21341;-45
2021/03/24 08:10:30;;;;;;;3.45;2.45;;;;;;;6.25;49.98;101311.21;1688432;84;21161;-43
2021/03/24 08:13:38;;;;;;;3.20;2.50;;;;;;;6.36;50.27;101308.26;1636519;87;21782;-46
2021/03/24 08:16:24;;;;;;;4.45;3.22;;;;;;;6.76;49.67;101313.56;1634651;87;21209;-45
2021/03/24 08:19:40;;;;;;;3.40;2.58;;;;;;;6.94;49.91;101313.59;1677037;85;21204;-42
2021/03/24 08:22:47;;;;;;;4.85;3.22;;;;;;;7.03;50.08;101313.59;1675600;84;21196;-46
2021/03/24 08:25:42;;;;;;;6.35;3.45;;;;;;;7.02;50.11;101312.75;1688601;84;21836;-47
2021/03/24 08:28:31;;;;;;;3.40;3.10;;;;;;;7.02;50.38;101310.59;1681487;84;21160;-48
2021/03/24 08:31:41;;;;;;;4.72;3.00;;;;;;;7.02;50.41;101311.46;1689646;84;21318;-46
2021/03/24 08:34:23;;;;;;;3.35;2.95;;;;;;;7.10;50.89;101306.29;1804536;79;22953;-44
2021/03/24 08:37:03;;;;;;;6.87;3.72;;;;;;;7.15;50.35;101308.46;1783727;80;21121;-43
2021/03/24 08:40:15;;;;;;;5.20;3.45;;;;;;;7.24;50.20;101310.61;1782262;80;21145;-43
2021/03/24 08:43:09;;;;;;;5.28;3.40;;;;;;;7.33;49.76;101312.35;1776859;80;21151;-47
2021/03/24 08:45:49;;;;;;;11.97;4.65;;;;;;;7.36;49.81;101317.52;1724207;83;21212;-43
2021/03/24 08:48:31;;;;;;;4.00;3.40;;;;;;;7.34;49.55;101316.23;1710455;83;21215;-40
2021/03/24 08:51:39;;;;;;;4.22;3.60;;;;;;;7.34;49.34;101320.53;1772622;79;22935;-47
2021/03/24 08:54:47;;;;;;;7.95;3.90;;;;;;;7.26;49.80;101327.44;1681079;84;21177;-48
2021/03/24 08:57:41;;;;;;;4.35;3.67;;;;;;;7.21;50.57;101325.29;1771551;79;22900;-45
2021/03/24 09:00:33;;;;;;;4.85;4.08;;;;;;;7.16;50.55;101326.99;1729702;82;21204;-42
2021/03/24 09:03:18;;;;;;;10.57;4.43;;;;;;;7.21;50.47;101326.58;1728726;82;21132;-46
2021/03/24 09:06:15;;;;;;;4.72;4.22;;;;;;;7.30;50.63;101321.39;1768896;79;22928;-47
2021/03/24 09:09:07;;;;;;;4.87;4.28;;;;;;;7.28;50.21;101325.70;1673775;85;21176;-45
2021/03/24 09:11:44;;;;;;;5.12;3.60;;;;;;;7.25;50.21;101319.25;1681058;85;21314;-45
2021/03/24 09:14:35;;;;;;;3.87;3.58;;;;;;;7.24;50.66;101322.69;1674954;85;21180;-43
2021/03/24 09:17:26;;;;;;;4.47;4.00;;;;;;;7.32;50.87;101318.37;1792253;79;38294;-43
2021/03/24 09:20:06;;;;;;;3.35;3.05;;;;;;;7.36;51.31;101321.39;1770669;80;21579;-45
2021/03/24 09:23:24;;;;;;;3.57;3.17;;;;;;;7.52;50.75;101319.27;1773967;80;21135;-45
2021/03/24 09:26:22;;;;;;;3.35;3.00;;;;;;;7.52;50.75;101319.27;1775111;80;21135;-45
2021/03/24 09:29:39;;;;;;;4.12;3.02;;;;;;;7.53;50.43;101323.98;1772317;80;21152;-41
2021/03/24 09:32:33;;;;;;;3.27;2.98;;;;;;;7.55;50.21;101314.06;1780855;80;21302;-47
2021/03/24 09:35:31;;;;;;;3.90;3.30;;;;;;;7.59;49.08;101319.67;1757365;80;21159;-41
2021/03/24 09:38:08;;;;;;;3.55;3.25;;;;;;;7.53;50.22;101322.27;1767058;80;21120;-45
2021/03/24 09:40:42;;;;;;;7.05;4.12;;;;;;;7.61;50.00;101316.65;1740906;80;21575;-45
2021/03/24 09:43:25;;;;;;;4.35;3.17;;;;;;;7.68;50.02;101327.45;1776093;80;21184;-46
2021/03/24 09:46:29;;;;;;;2.90;2.50;;;;;;;7.73;50.12;101326.99;1768521;80;21587;-40
2021/03/24 09:49:01;;;;;;;3.55;3.17;;;;;;;7.84;49.93;101323.97;1772496;80;21191;-42
2021/03/24 09:51:41;;;;;;;3.90;3.50;;;;;;;7.93;49.58;101317.91;1769256;80;21144;-48
2021/03/24 09:54:22;;;;;;;11.05;4.05;;;;;;;7.87;49.47;101312.74;1775670;80;21136;-42
2021/03/24 09:57:11;;;;;;;3.60;3.30;;;;;;;7.89;49.10;101317.03;1731410;83;21171;-47
2021/03/24 09:59:52;;;;;;;3.30;3.00;;;;;;;7.92;49.04;101311.86;1731371;83;21160;-44
2021/03/24 10:02:41;;;;;;;4.33;3.77;;;;;;;8.02;48.94;101317.88;1792144;79;28035;-41
2021/03/24 10:05:11;;;;;;;3.20;2.90;;;;;;;8.02;48.07;101317.45;1771210;80;21332;-44
2021/03/24 10:07:42;;;;;;;3.35;3.05;;;;;;;8.09;47.08;101321.77;1749717;80;21139;-49
2021/03/24 10:10:24;;;;;;;4.35;3.55;;;;;;;8.09;47.39;101326.95;1771371;80;21139;-46
2021/03/24 10:13:20;;;;;;;4.55;3.45;;;;;;;8.07;47.35;101320.91;1768121;80;21152;-44
2021/03/24 10:15:53;;;;;;;3.30;3.00;;;;;;;8.09;47.66;101320.47;1772564;80;21285;-42
2021/03/24 10:18:36;;;;;;;4.00;3.42;;;;;;;8.17;47.13;101321.30;1768636;80;21143;-45
2021/03/24 10:21:19;;;;;;;5.08;3.27;;;;;;;8.21;46.94;101315.23;1769836;79;21136;-46
2021/03/24 10:24:05;;;;;;;3.02;2.72;;;;;;;8.21;47.29;101313.95;1763205;81;21597;-48
2021/03/24 10:26:45;;;;;;;3.83;3.50;;;;;;;8.31;47.01;101306.15;1754134;81;21633;-45
2021/03/24 10:29:20;;;;;;;3.17;2.87;;;;;;;8.36;47.70;101310.89;1759385;81;21672;-44
2021/03/24 10:32:00;;;;;;;3.62;3.33;;;;;;;8.45;46.85;101316.06;1760833;81;21620;-42
2021/03/24 10:34:43;;;;;;;3.52;3.22;;;;;;;8.59;46.22;101314.27;1771613;79;22962;-43
2021/03/24 10:37:41;;;;;;;3.65;3.02;;;;;;;8.61;46.56;101321.60;1741060;82;21133;-47
2021/03/24 10:40:30;;;;;;;3.83;3.42;;;;;;;8.65;45.62;101322.02;1734501;82;21216;-46
2021/03/24 10:43:27;;;;;;;4.83;4.33;;;;;;;8.66;46.52;101315.94;1701321;83;21291;-47
2021/03/24 10:46:38;;;;;;;4.05;3.75;;;;;;;8.69;47.06;101321.13;1704800;83;21184;-42
2021/03/24 10:49:21;;;;;;;4.45;4.05;;;;;;;8.75;46.70;101321.09;1699250;83;21171;-44
2021/03/24 10:52:02;;;;;;;5.05;4.53;;;;;;;8.83;47.03;101321.91;1705606;83;21173;-45
2021/03/24 10:54:36;;;;;;;4.60;3.98;;;;;;;8.93;46.54;101315.79;1793663;79;23086;-46
2021/03/24 10:57:30;;;;;;;4.42;4.03;;;;;;;8.80;46.60;101312.40;1797703;78;21159;-45
2021/03/24 11:00:19;;;;;;;5.72;4.75;;;;;;;8.72;46.94;101309.42;1780154;78;21132;-46
2021/03/24 11:03:13;;;;;;;4.33;3.92;;;;;;;8.71;47.34;101311.60;1785478;78;21172;-43
2021/03/24 11:06:01;;;;;;;4.65;4.20;;;;;;;8.74;47.23;101310.27;1790341;78;21147;-40
2021/03/24 11:08:47;;;;;;;3.33;3.00;;;;;;;8.74;47.50;101308.97;1804766;78;21159;-43
2021/03/24 11:11:22;;;;;;;4.08;3.72;;;;;;;8.82;46.63;101309.82;1782507;80;21171;-41
2021/03/24 11:13:59;;;;;;;4.30;3.62;;;;;;;8.92;46.25;101309.73;1807971;79;22955;-46
2021/03/24 11:16:42;;;;;;;3.50;3.20;;;;;;;8.97;45.96;101308.41;1781990;80;21136;-44
2021/03/24 11:19:22;;;;;;;4.28;3.87;;;;;;;9.07;45.56;101305.34;1789062;80;21172;-46
2021/03/24 11:22:37;;;;;;;4.08;3.67;;;;;;;9.14;46.06;101301.80;1776922;80;21549;-47
2021/03/24 11:25:17;;;;;;;4.15;3.75;;;;;;;9.24;45.70;101296.53;1738567;81;21292;-43
2021/03/24 11:27:56;;;;;;;4.17;3.77;;;;;;;9.37;44.96;101299.91;1768098;79;22913;-46
2021/03/24 11:30:43;;;;;;;4.17;3.77;;;;;;;9.39;45.06;101298.16;1810949;79;22977;-46
2021/03/24 11:33:33;;;;;;;4.05;3.75;;;;;;;9.37;44.87;101300.77;1784044;80;21561;-47
2021/03/24 11:36:28;;;;;;;3.85;3.52;;;;;;;9.43;45.02;101300.72;1788766;80;21120;-45
2021/03/24 11:39:16;;;;;;;4.40;4.00;;;;;;;9.47;44.39;101297.22;1742234;81;21152;-47
2021/03/24 11:41:45;;;;;;;4.25;3.85;;;;;;;9.50;44.35;101293.74;1738478;81;21317;-47
2021/03/24 11:44:17;;;;;;;3.85;3.55;;;;;;;9.51;44.34;101295.02;1722325;83;21154;-43
2021/03/24 11:46:55;;;;;;;3.95;3.55;;;;;;;9.58;44.47;101300.56;1736998;81;21159;-43
2021/03/24 11:49:33;;;;;;;4.55;4.10;;;;;;;9.64;44.15;101300.97;1713383;83;21144;-46
2021/03/24 11:52:50;;;;;;;4.42;4.03;;;;;;;9.64;43.88;101298.37;1725439;83;21632;-46
2021/03/24 11:55:48;;;;;;;4.17;3.77;;;;;;;9.60;43.63;101301.87;1716438;83;21137;-47
2021/03/24 11:58:30;;;;;;;4.28;3.87;;;;;;;9.56;43.67;101299.72;1723066;83;21586;-49
2021/03/24 12:01:34;;;;;;;3.95;3.55;;;;;;;9.53;43.73;101303.66;1713979;83;21188;-47
2021/03/24 12:04:29;;;;;;;4.33;3.67;;;;;;;9.60;44.34;101297.98;1723157;82;21639;-44
2021/03/24 12:07:18;;;;;;;3.80;3.50;;;;;;;9.70;43.61;101302.20;1739508;82;21160;-43
2021/03/24 12:09:46;;;;;;;4.25;3.58;;;;;;;9.70;42.82;101305.67;1623239;87;21332;-44
2021/03/24 12:12:20;;;;;;;4.55;3.87;;;;;;;9.66;42.58;101309.18;1651101;87;21195;-44
2021/03/24 12:15:03;;;;;;;4.53;4.12;;;;;;;9.66;42.73;101309.18;1653408;87;21225;-47
2021/03/24 12:17:37;;;;;;;4.50;3.72;;;;;;;9.74;43.41;101305.20;1808273;79;22818;-46
2021/03/24 12:20:13;;;;;;;4.78;4.22;;;;;;;9.71;42.49;101304.78;1776142;80;21513;-47
2021/03/24 12:22:56;;;;;;;4.12;3.75;;;;;;;9.68;42.60;101307.86;1719219;83;21156;-47
2021/03/24 12:25:30;;;;;;;4.72;3.62;;;;;;;9.66;43.17;101311.78;1712843;83;21184;-47
2021/03/24 12:28:06;;;;;;;4.28;3.87;;;;;;;9.68;43.13;101308.73;1714730;83;21660;-43
2021/03/24 12:30:44;;;;;;;4.47;4.03;;;;;;;9.69;42.90;101311.73;1709923;83;21212;-42
2021/03/24 12:33:22;;;;;;;4.10;3.70;;;;;;;9.72;43.00;101311.72;1709195;83;21227;-43
2021/03/24 12:36:05;;;;;;;4.30;3.90;;;;;;;9.76;42.56;101303.02;1708976;83;21196;-47
2021/03/24 12:38:50;;;;;;;3.67;3.37;;;;;;;9.84;43.09;101305.53;1715794;83;21222;-43
2021/03/24 12:41:37;;;;;;;3.90;3.52;;;;;;;9.91;42.57;101313.70;1714848;83;21187;-43
2021/03/24 12:44:39;;;;;;;4.60;3.60;;;;;;;9.98;42.20;101315.77;1759732;79;23372;-47
2021/03/24 12:47:34;;;;;;;4.22;3.67;;;;;;;10.00;42.34;101314.02;1731203;82;21171;-46